sensor_id;sensor_type;location;lat;lon;timestamp;P1;durP1;ratioP1;P2;durP2;ratioP2
75216;SDS011;63800;51.972;5.682;2023-05-07T00:01:53;14.95;;;10.73;;
75216;SDS011;63800;51.972;5.682;2023-05-07T00:04:18;13.63;;;10.65;;
75216;SDS011;63800;51.972;5.682;2023-05-07T00:06:44;12.77;;;11.13;;
75216;SDS011;63800;51.972;5.682;2023-05-07T00:09:10;12.80;;;9.52;;
75216;SDS011;63800;51.972;5.682;2023-05-07T00:11:35;11.68;;;9.60;;
75216;SDS011;63800;51.972;5.682;2023-05-07T00:14:01;12.82;;;10.20;;
75216;SDS011;63800;51.972;5.682;2023-05-07T00:16:26;11.88;;;10.48;;
75216;SDS011;63800;51.972;5.682;2023-05-07T00:18:52;12.20;;;9.68;;
75216;SDS011;63800;51.972;5.682;2023-05-07T00:21:17;14.20;;;10.73;;
75216;SDS011;63800;51.972;5.682;2023-05-07T00:23:43;13.52;;;10.45;;
75216;SDS011;63800;51.972;5.682;2023-05-07T00:26:08;14.15;;;11.18;;
75216;SDS011;63800;51.972;5.682;2023-05-07T00:28:34;12.05;;;10.45;;
75216;SDS011;63800;51.972;5.682;2023-05-07T00:30:59;14.32;;;10.27;;
75216;SDS011;63800;51.972;5.682;2023-05-07T00:33:24;13.27;;;10.40;;
75216;SDS011;63800;51.972;5.682;2023-05-07T00:35:51;13.70;;;10.82;;
75216;SDS011;63800;51.972;5.682;2023-05-07T00:38:19;12.73;;;10.30;;
75216;SDS011;63800;51.972;5.682;2023-05-07T00:40:44;16.58;;;11.48;;
75216;SDS011;63800;51.972;5.682;2023-05-07T00:43:10;13.55;;;10.77;;
75216;SDS011;63800;51.972;5.682;2023-05-07T00:45:36;13.70;;;10.90;;
75216;SDS011;63800;51.972;5.682;2023-05-07T00:48:05;12.80;;;10.88;;
75216;SDS011;63800;51.972;5.682;2023-05-07T00:50:30;15.05;;;11.55;;
75216;SDS011;63800;51.972;5.682;2023-05-07T00:52:56;14.75;;;11.43;;
75216;SDS011;63800;51.972;5.682;2023-05-07T00:55:22;14.07;;;11.55;;
75216;SDS011;63800;51.972;5.682;2023-05-07T00:57:48;16.33;;;11.50;;
75216;SDS011;63800;51.972;5.682;2023-05-07T01:00:15;16.02;;;11.98;;
75216;SDS011;63800;51.972;5.682;2023-05-07T01:02:41;16.90;;;13.05;;
75216;SDS011;63800;51.972;5.682;2023-05-07T01:05:09;14.68;;;12.30;;
75216;SDS011;63800;51.972;5.682;2023-05-07T01:07:39;15.85;;;12.75;;
75216;SDS011;63800;51.972;5.682;2023-05-07T01:10:06;16.67;;;12.52;;
75216;SDS011;63800;51.972;5.682;2023-05-07T01:12:33;14.68;;;11.68;;
75216;SDS011;63800;51.972;5.682;2023-05-07T01:15:00;14.93;;;12.32;;
75216;SDS011;63800;51.972;5.682;2023-05-07T01:17:26;14.43;;;11.65;;
75216;SDS011;63800;51.972;5.682;2023-05-07T01:19:52;14.73;;;11.65;;
75216;SDS011;63800;51.972;5.682;2023-05-07T01:22:40;16.30;;;12.40;;
75216;SDS011;63800;51.972;5.682;2023-05-07T01:25:05;17.25;;;12.65;;
75216;SDS011;63800;51.972;5.682;2023-05-07T01:27:32;17.90;;;12.30;;
75216;SDS011;63800;51.972;5.682;2023-05-07T01:30:02;14.85;;;12.90;;
75216;SDS011;63800;51.972;5.682;2023-05-07T01:35:14;18.10;;;12.13;;
75216;SDS011;63800;51.972;5.682;2023-05-07T01:37:43;18.10;;;12.82;;
75216;SDS011;63800;51.972;5.682;2023-05-07T01:40:09;16.98;;;12.93;;
75216;SDS011;63800;51.972;5.682;2023-05-07T01:42:35;16.30;;;12.80;;
75216;SDS011;63800;51.972;5.682;2023-05-07T01:45:01;17.27;;;13.38;;
75216;SDS011;63800;51.972;5.682;2023-05-07T01:47:27;15.43;;;12.88;;
75216;SDS011;63800;51.972;5.682;2023-05-07T01:49:53;14.07;;;12.48;;
75216;SDS011;63800;51.972;5.682;2023-05-07T01:52:19;15.90;;;13.02;;
75216;SDS011;63800;51.972;5.682;2023-05-07T01:54:45;16.02;;;13.10;;
75216;SDS011;63800;51.972;5.682;2023-05-07T01:57:10;17.33;;;13.40;;
75216;SDS011;63800;51.972;5.682;2023-05-07T01:59:36;17.83;;;13.65;;
75216;SDS011;63800;51.972;5.682;2023-05-07T02:02:01;15.18;;;12.77;;
75216;SDS011;63800;51.972;5.682;2023-05-07T02:04:27;14.80;;;12.63;;
75216;SDS011;63800;51.972;5.682;2023-05-07T02:06:52;15.77;;;13.40;;
75216;SDS011;63800;51.972;5.682;2023-05-07T02:09:18;19.33;;;14.02;;
75216;SDS011;63800;51.972;5.682;2023-05-07T02:11:43;16.83;;;13.02;;
75216;SDS011;63800;51.972;5.682;2023-05-07T02:14:09;17.98;;;13.82;;
75216;SDS011;63800;51.972;5.682;2023-05-07T02:16:35;18.05;;;13.32;;
75216;SDS011;63800;51.972;5.682;2023-05-07T02:19:00;17.65;;;12.90;;
75216;SDS011;63800;51.972;5.682;2023-05-07T02:21:25;16.95;;;14.05;;
75216;SDS011;63800;51.972;5.682;2023-05-07T02:23:51;15.90;;;12.90;;
75216;SDS011;63800;51.972;5.682;2023-05-07T02:26:16;17.60;;;14.50;;
75216;SDS011;63800;51.972;5.682;2023-05-07T02:28:43;19.08;;;14.57;;
75216;SDS011;63800;51.972;5.682;2023-05-07T02:31:08;19.77;;;14.30;;
75216;SDS011;63800;51.972;5.682;2023-05-07T02:33:34;18.35;;;14.10;;
75216;SDS011;63800;51.972;5.682;2023-05-07T02:36:07;19.38;;;14.10;;
75216;SDS011;63800;51.972;5.682;2023-05-07T02:40:58;17.98;;;13.38;;
75216;SDS011;63800;51.972;5.682;2023-05-07T02:43:24;18.73;;;13.43;;
75216;SDS011;63800;51.972;5.682;2023-05-07T02:45:59;18.80;;;13.02;;
75216;SDS011;63800;51.972;5.682;2023-05-07T02:48:28;17.67;;;13.82;;
75216;SDS011;63800;51.972;5.682;2023-05-07T02:50:53;16.48;;;13.57;;
75216;SDS011;63800;51.972;5.682;2023-05-07T02:53:19;17.30;;;13.60;;
75216;SDS011;63800;51.972;5.682;2023-05-07T02:55:44;17.38;;;13.55;;
75216;SDS011;63800;51.972;5.682;2023-05-07T02:58:10;16.80;;;13.20;;
75216;SDS011;63800;51.972;5.682;2023-05-07T03:00:35;17.77;;;13.30;;
75216;SDS011;63800;51.972;5.682;2023-05-07T03:03:01;15.50;;;12.82;;
75216;SDS011;63800;51.972;5.682;2023-05-07T03:05:26;18.73;;;13.52;;
75216;SDS011;63800;51.972;5.682;2023-05-07T03:07:51;17.50;;;13.13;;
75216;SDS011;63800;51.972;5.682;2023-05-07T03:10:17;16.60;;;13.25;;
75216;SDS011;63800;51.972;5.682;2023-05-07T03:12:43;16.33;;;12.80;;
75216;SDS011;63800;51.972;5.682;2023-05-07T03:15:09;17.00;;;12.93;;
75216;SDS011;63800;51.972;5.682;2023-05-07T03:17:36;16.27;;;13.02;;
75216;SDS011;63800;51.972;5.682;2023-05-07T03:20:01;19.17;;;13.23;;
75216;SDS011;63800;51.972;5.682;2023-05-07T03:22:27;17.15;;;13.60;;
75216;SDS011;63800;51.972;5.682;2023-05-07T03:24:52;19.17;;;15.10;;
75216;SDS011;63800;51.972;5.682;2023-05-07T03:27:18;19.25;;;13.95;;
75216;SDS011;63800;51.972;5.682;2023-05-07T03:29:43;17.98;;;13.88;;
75216;SDS011;63800;51.972;5.682;2023-05-07T03:32:09;18.75;;;14.13;;
75216;SDS011;63800;51.972;5.682;2023-05-07T03:34:34;17.60;;;14.57;;
75216;SDS011;63800;51.972;5.682;2023-05-07T03:36:59;19.42;;;14.48;;
75216;SDS011;63800;51.972;5.682;2023-05-07T03:39:25;18.67;;;14.77;;
75216;SDS011;63800;51.972;5.682;2023-05-07T03:41:51;20.85;;;15.10;;
75216;SDS011;63800;51.972;5.682;2023-05-07T03:44:16;19.75;;;15.50;;
75216;SDS011;63800;51.972;5.682;2023-05-07T03:46:41;19.85;;;15.30;;
75216;SDS011;63800;51.972;5.682;2023-05-07T03:49:07;20.65;;;16.15;;
75216;SDS011;63800;51.972;5.682;2023-05-07T03:51:33;21.25;;;16.52;;
75216;SDS011;63800;51.972;5.682;2023-05-07T03:53:58;21.95;;;16.23;;
75216;SDS011;63800;51.972;5.682;2023-05-07T03:56:23;23.50;;;16.77;;
75216;SDS011;63800;51.972;5.682;2023-05-07T03:58:51;21.05;;;15.30;;
75216;SDS011;63800;51.972;5.682;2023-05-07T04:01:17;21.27;;;16.23;;
75216;SDS011;63800;51.972;5.682;2023-05-07T04:03:43;21.95;;;16.40;;
75216;SDS011;63800;51.972;5.682;2023-05-07T04:06:08;24.05;;;17.35;;
75216;SDS011;63800;51.972;5.682;2023-05-07T04:08:33;23.20;;;16.38;;
75216;SDS011;63800;51.972;5.682;2023-05-07T04:10:59;21.67;;;17.02;;
75216;SDS011;63800;51.972;5.682;2023-05-07T04:13:25;24.42;;;17.20;;
75216;SDS011;63800;51.972;5.682;2023-05-07T04:15:51;23.02;;;16.65;;
75216;SDS011;63800;51.972;5.682;2023-05-07T04:18:17;24.50;;;17.83;;
75216;SDS011;63800;51.972;5.682;2023-05-07T04:20:42;22.00;;;16.67;;
75216;SDS011;63800;51.972;5.682;2023-05-07T04:23:08;23.83;;;17.05;;
75216;SDS011;63800;51.972;5.682;2023-05-07T04:25:34;23.35;;;16.25;;
75216;SDS011;63800;51.972;5.682;2023-05-07T04:27:59;20.67;;;16.35;;
75216;SDS011;63800;51.972;5.682;2023-05-07T04:30:25;22.23;;;16.23;;
75216;SDS011;63800;51.972;5.682;2023-05-07T04:32:50;20.92;;;15.82;;
75216;SDS011;63800;51.972;5.682;2023-05-07T04:35:16;21.05;;;15.95;;
75216;SDS011;63800;51.972;5.682;2023-05-07T04:37:42;21.67;;;17.20;;
75216;SDS011;63800;51.972;5.682;2023-05-07T04:40:07;22.15;;;16.13;;
75216;SDS011;63800;51.972;5.682;2023-05-07T04:42:33;21.35;;;14.82;;
75216;SDS011;63800;51.972;5.682;2023-05-07T04:44:58;22.20;;;14.90;;
75216;SDS011;63800;51.972;5.682;2023-05-07T04:47:25;20.85;;;15.23;;
75216;SDS011;63800;51.972;5.682;2023-05-07T04:49:50;23.33;;;15.63;;
75216;SDS011;63800;51.972;5.682;2023-05-07T04:52:16;20.13;;;14.82;;
75216;SDS011;63800;51.972;5.682;2023-05-07T04:54:41;19.42;;;15.50;;
75216;SDS011;63800;51.972;5.682;2023-05-07T04:57:07;18.73;;;14.57;;
75216;SDS011;63800;51.972;5.682;2023-05-07T04:59:32;18.25;;;14.15;;
75216;SDS011;63800;51.972;5.682;2023-05-07T05:01:58;18.48;;;14.25;;
75216;SDS011;63800;51.972;5.682;2023-05-07T05:04:24;19.48;;;14.73;;
75216;SDS011;63800;51.972;5.682;2023-05-07T05:06:49;21.40;;;15.43;;
75216;SDS011;63800;51.972;5.682;2023-05-07T05:09:15;19.90;;;14.57;;
75216;SDS011;63800;51.972;5.682;2023-05-07T05:11:41;19.13;;;14.60;;
75216;SDS011;63800;51.972;5.682;2023-05-07T05:14:06;22.20;;;15.63;;
75216;SDS011;63800;51.972;5.682;2023-05-07T05:16:32;20.63;;;15.00;;
75216;SDS011;63800;51.972;5.682;2023-05-07T05:18:57;20.95;;;15.25;;
75216;SDS011;63800;51.972;5.682;2023-05-07T05:21:23;22.35;;;16.30;;
75216;SDS011;63800;51.972;5.682;2023-05-07T05:23:48;21.35;;;16.02;;
75216;SDS011;63800;51.972;5.682;2023-05-07T05:26:14;21.60;;;15.52;;
75216;SDS011;63800;51.972;5.682;2023-05-07T05:28:39;20.55;;;15.65;;
75216;SDS011;63800;51.972;5.682;2023-05-07T05:31:05;20.48;;;15.80;;
75216;SDS011;63800;51.972;5.682;2023-05-07T05:33:30;21.83;;;15.63;;
75216;SDS011;63800;51.972;5.682;2023-05-07T05:35:56;20.92;;;16.45;;
75216;SDS011;63800;51.972;5.682;2023-05-07T05:38:21;23.17;;;16.67;;
75216;SDS011;63800;51.972;5.682;2023-05-07T05:40:46;21.73;;;16.27;;
75216;SDS011;63800;51.972;5.682;2023-05-07T05:43:13;20.95;;;16.35;;
75216;SDS011;63800;51.972;5.682;2023-05-07T05:45:39;22.17;;;16.35;;
75216;SDS011;63800;51.972;5.682;2023-05-07T05:48:05;22.70;;;15.70;;
75216;SDS011;63800;51.972;5.682;2023-05-07T05:50:31;19.98;;;14.02;;
75216;SDS011;63800;51.972;5.682;2023-05-07T05:52:56;21.98;;;15.18;;
75216;SDS011;63800;51.972;5.682;2023-05-07T05:55:22;22.35;;;16.17;;
75216;SDS011;63800;51.972;5.682;2023-05-07T05:57:48;21.02;;;16.02;;
75216;SDS011;63800;51.972;5.682;2023-05-07T06:00:15;19.77;;;15.35;;
75216;SDS011;63800;51.972;5.682;2023-05-07T06:02:41;19.20;;;14.77;;
75216;SDS011;63800;51.972;5.682;2023-05-07T06:05:07;20.13;;;15.68;;
75216;SDS011;63800;51.972;5.682;2023-05-07T06:07:33;21.73;;;15.85;;
75216;SDS011;63800;51.972;5.682;2023-05-07T06:09:59;21.40;;;15.80;;
75216;SDS011;63800;51.972;5.682;2023-05-07T06:12:25;20.55;;;15.32;;
75216;SDS011;63800;51.972;5.682;2023-05-07T06:14:50;20.63;;;15.48;;
75216;SDS011;63800;51.972;5.682;2023-05-07T06:17:16;21.83;;;15.70;;
75216;SDS011;63800;51.972;5.682;2023-05-07T06:19:41;19.55;;;14.32;;
75216;SDS011;63800;51.972;5.682;2023-05-07T06:22:07;21.65;;;15.57;;
75216;SDS011;63800;51.972;5.682;2023-05-07T06:24:32;20.05;;;15.10;;
75216;SDS011;63800;51.972;5.682;2023-05-07T06:26:58;19.75;;;15.15;;
75216;SDS011;63800;51.972;5.682;2023-05-07T06:29:23;21.77;;;16.30;;
75216;SDS011;63800;51.972;5.682;2023-05-07T06:31:51;21.77;;;15.90;;
75216;SDS011;63800;51.972;5.682;2023-05-07T06:34:17;19.33;;;14.70;;
75216;SDS011;63800;51.972;5.682;2023-05-07T06:36:43;23.13;;;16.38;;
75216;SDS011;63800;51.972;5.682;2023-05-07T06:39:08;21.20;;;15.23;;
75216;SDS011;63800;51.972;5.682;2023-05-07T06:41:34;24.00;;;16.30;;
75216;SDS011;63800;51.972;5.682;2023-05-07T06:44:01;19.88;;;15.13;;
75216;SDS011;63800;51.972;5.682;2023-05-07T06:46:29;19.27;;;14.63;;
75216;SDS011;63800;51.972;5.682;2023-05-07T06:48:55;19.90;;;14.65;;
75216;SDS011;63800;51.972;5.682;2023-05-07T06:51:21;19.40;;;15.10;;
75216;SDS011;63800;51.972;5.682;2023-05-07T06:53:47;20.77;;;14.98;;
75216;SDS011;63800;51.972;5.682;2023-05-07T06:56:12;20.90;;;15.40;;
75216;SDS011;63800;51.972;5.682;2023-05-07T06:58:38;19.20;;;14.95;;
75216;SDS011;63800;51.972;5.682;2023-05-07T07:01:03;19.63;;;16.02;;
75216;SDS011;63800;51.972;5.682;2023-05-07T07:03:29;20.77;;;15.07;;
75216;SDS011;63800;51.972;5.682;2023-05-07T07:05:55;20.90;;;15.52;;
75216;SDS011;63800;51.972;5.682;2023-05-07T07:08:21;20.08;;;15.50;;
75216;SDS011;63800;51.972;5.682;2023-05-07T07:10:47;19.52;;;15.05;;
75216;SDS011;63800;51.972;5.682;2023-05-07T07:13:13;18.15;;;14.13;;
75216;SDS011;63800;51.972;5.682;2023-05-07T07:15:38;17.92;;;13.82;;
75216;SDS011;63800;51.972;5.682;2023-05-07T07:18:05;17.23;;;13.68;;
75216;SDS011;63800;51.972;5.682;2023-05-07T07:20:30;20.50;;;15.07;;
75216;SDS011;63800;51.972;5.682;2023-05-07T07:22:56;18.42;;;14.50;;
75216;SDS011;63800;51.972;5.682;2023-05-07T07:25:21;20.55;;;15.27;;
75216;SDS011;63800;51.972;5.682;2023-05-07T07:27:47;21.42;;;15.82;;
75216;SDS011;63800;51.972;5.682;2023-05-07T07:30:12;19.55;;;15.27;;
75216;SDS011;63800;51.972;5.682;2023-05-07T07:32:37;18.45;;;13.77;;
75216;SDS011;63800;51.972;5.682;2023-05-07T07:35:03;20.10;;;14.57;;
75216;SDS011;63800;51.972;5.682;2023-05-07T07:37:29;18.95;;;14.60;;
75216;SDS011;63800;51.972;5.682;2023-05-07T07:39:55;21.55;;;16.42;;
75216;SDS011;63800;51.972;5.682;2023-05-07T07:42:20;21.55;;;15.70;;
75216;SDS011;63800;51.972;5.682;2023-05-07T07:44:46;21.23;;;16.60;;
75216;SDS011;63800;51.972;5.682;2023-05-07T07:47:11;21.95;;;17.35;;
75216;SDS011;63800;51.972;5.682;2023-05-07T07:49:37;22.98;;;17.88;;
75216;SDS011;63800;51.972;5.682;2023-05-07T07:52:02;21.80;;;16.83;;
75216;SDS011;63800;51.972;5.682;2023-05-07T07:54:28;23.65;;;17.25;;
75216;SDS011;63800;51.972;5.682;2023-05-07T07:56:54;21.83;;;17.15;;
75216;SDS011;63800;51.972;5.682;2023-05-07T07:59:20;21.55;;;16.83;;
75216;SDS011;63800;51.972;5.682;2023-05-07T08:01:46;24.92;;;17.85;;
75216;SDS011;63800;51.972;5.682;2023-05-07T08:04:14;23.48;;;18.05;;
75216;SDS011;63800;51.972;5.682;2023-05-07T08:06:40;23.90;;;18.17;;
75216;SDS011;63800;51.972;5.682;2023-05-07T08:09:05;23.23;;;17.02;;
75216;SDS011;63800;51.972;5.682;2023-05-07T08:11:31;23.85;;;18.13;;
75216;SDS011;63800;51.972;5.682;2023-05-07T08:13:56;22.73;;;17.67;;
75216;SDS011;63800;51.972;5.682;2023-05-07T08:16:22;23.83;;;18.13;;
75216;SDS011;63800;51.972;5.682;2023-05-07T08:18:47;23.27;;;17.35;;
75216;SDS011;63800;51.972;5.682;2023-05-07T08:21:13;22.80;;;18.08;;
75216;SDS011;63800;51.972;5.682;2023-05-07T08:23:38;24.20;;;17.83;;
75216;SDS011;63800;51.972;5.682;2023-05-07T08:26:03;24.35;;;18.10;;
75216;SDS011;63800;51.972;5.682;2023-05-07T08:28:29;21.00;;;16.73;;
75216;SDS011;63800;51.972;5.682;2023-05-07T08:30:54;23.65;;;17.70;;
75216;SDS011;63800;51.972;5.682;2023-05-07T08:33:21;22.52;;;16.42;;
75216;SDS011;63800;51.972;5.682;2023-05-07T08:35:47;21.15;;;16.48;;
75216;SDS011;63800;51.972;5.682;2023-05-07T08:38:12;22.35;;;17.13;;
75216;SDS011;63800;51.972;5.682;2023-05-07T08:40:38;22.27;;;16.35;;
75216;SDS011;63800;51.972;5.682;2023-05-07T08:43:07;22.90;;;16.48;;
75216;SDS011;63800;51.972;5.682;2023-05-07T08:45:33;21.63;;;16.45;;
75216;SDS011;63800;51.972;5.682;2023-05-07T08:48:00;19.75;;;16.23;;
75216;SDS011;63800;51.972;5.682;2023-05-07T08:50:28;21.08;;;15.43;;
75216;SDS011;63800;51.972;5.682;2023-05-07T08:52:54;21.65;;;16.23;;
75216;SDS011;63800;51.972;5.682;2023-05-07T08:55:22;23.08;;;15.90;;
75216;SDS011;63800;51.972;5.682;2023-05-07T08:57:48;19.88;;;16.02;;
75216;SDS011;63800;51.972;5.682;2023-05-07T09:00:15;21.90;;;15.15;;
75216;SDS011;63800;51.972;5.682;2023-05-07T09:02:40;19.33;;;14.93;;
75216;SDS011;63800;51.972;5.682;2023-05-07T09:05:06;19.80;;;14.63;;
75216;SDS011;63800;51.972;5.682;2023-05-07T09:07:32;22.73;;;15.27;;
75216;SDS011;63800;51.972;5.682;2023-05-07T09:09:57;20.77;;;14.73;;
75216;SDS011;63800;51.972;5.682;2023-05-07T09:12:24;20.02;;;14.80;;
75216;SDS011;63800;51.972;5.682;2023-05-07T09:14:49;18.05;;;14.55;;
75216;SDS011;63800;51.972;5.682;2023-05-07T09:17:15;19.23;;;13.35;;
75216;SDS011;63800;51.972;5.682;2023-05-07T09:19:42;17.50;;;13.18;;
75216;SDS011;63800;51.972;5.682;2023-05-07T09:22:09;17.33;;;12.25;;
75216;SDS011;63800;51.972;5.682;2023-05-07T09:24:34;16.48;;;12.63;;
75216;SDS011;63800;51.972;5.682;2023-05-07T09:27:02;16.23;;;12.57;;
75216;SDS011;63800;51.972;5.682;2023-05-07T09:29:29;17.38;;;13.02;;
75216;SDS011;63800;51.972;5.682;2023-05-07T09:31:55;17.45;;;12.35;;
75216;SDS011;63800;51.972;5.682;2023-05-07T09:34:21;18.05;;;12.93;;
75216;SDS011;63800;51.972;5.682;2023-05-07T09:36:47;17.30;;;11.98;;
75216;SDS011;63800;51.972;5.682;2023-05-07T09:39:13;15.20;;;11.63;;
75216;SDS011;63800;51.972;5.682;2023-05-07T09:41:45;17.80;;;11.38;;
75216;SDS011;63800;51.972;5.682;2023-05-07T09:44:12;14.82;;;10.90;;
75216;SDS011;63800;51.972;5.682;2023-05-07T09:46:39;16.08;;;11.10;;
75216;SDS011;63800;51.972;5.682;2023-05-07T09:49:10;16.90;;;12.27;;
75216;SDS011;63800;51.972;5.682;2023-05-07T09:51:41;13.82;;;11.27;;
75216;SDS011;63800;51.972;5.682;2023-05-07T09:54:10;15.10;;;10.82;;
75216;SDS011;63800;51.972;5.682;2023-05-07T09:56:36;14.60;;;11.27;;
75216;SDS011;63800;51.972;5.682;2023-05-07T09:59:03;14.75;;;10.10;;
75216;SDS011;63800;51.972;5.682;2023-05-07T10:01:31;15.55;;;11.10;;
75216;SDS011;63800;51.972;5.682;2023-05-07T10:03:58;16.33;;;11.75;;
75216;SDS011;63800;51.972;5.682;2023-05-07T10:06:24;16.30;;;11.25;;
75216;SDS011;63800;51.972;5.682;2023-05-07T10:08:51;15.32;;;11.55;;
75216;SDS011;63800;51.972;5.682;2023-05-07T10:11:17;15.50;;;11.20;;
75216;SDS011;63800;51.972;5.682;2023-05-07T10:13:43;15.65;;;10.68;;
75216;SDS011;63800;51.972;5.682;2023-05-07T10:16:09;15.60;;;11.52;;
75216;SDS011;63800;51.972;5.682;2023-05-07T10:18:35;15.02;;;10.85;;
75216;SDS011;63800;51.972;5.682;2023-05-07T10:21:19;15.60;;;11.07;;
75216;SDS011;63800;51.972;5.682;2023-05-07T10:23:48;17.15;;;11.80;;
75216;SDS011;63800;51.972;5.682;2023-05-07T10:26:15;17.40;;;12.23;;
75216;SDS011;63800;51.972;5.682;2023-05-07T10:28:45;17.75;;;12.48;;
75216;SDS011;63800;51.972;5.682;2023-05-07T10:34:07;18.55;;;13.95;;
75216;SDS011;63800;51.972;5.682;2023-05-07T10:36:35;21.23;;;15.23;;
75216;SDS011;63800;51.972;5.682;2023-05-07T10:39:01;17.40;;;14.48;;
75216;SDS011;63800;51.972;5.682;2023-05-07T10:41:26;18.38;;;13.30;;
75216;SDS011;63800;51.972;5.682;2023-05-07T10:43:52;16.70;;;12.52;;
75216;SDS011;63800;51.972;5.682;2023-05-07T10:46:18;19.05;;;13.48;;
75216;SDS011;63800;51.972;5.682;2023-05-07T10:51:26;18.65;;;13.30;;
75216;SDS011;63800;51.972;5.682;2023-05-07T10:56:36;17.45;;;12.93;;
75216;SDS011;63800;51.972;5.682;2023-05-07T11:01:58;17.77;;;13.07;;
75216;SDS011;63800;51.972;5.682;2023-05-07T11:04:24;17.67;;;12.10;;
75216;SDS011;63800;51.972;5.682;2023-05-07T11:12:17;15.88;;;12.32;;
75216;SDS011;63800;51.972;5.682;2023-05-07T11:17:35;17.33;;;11.90;;
75216;SDS011;63800;51.972;5.682;2023-05-07T11:20:18;15.57;;;11.10;;
75216;SDS011;63800;51.972;5.682;2023-05-07T11:22:44;17.35;;;12.43;;
75216;SDS011;63800;51.972;5.682;2023-05-07T11:25:09;15.18;;;11.93;;
75216;SDS011;63800;51.972;5.682;2023-05-07T11:27:36;14.38;;;11.85;;
75216;SDS011;63800;51.972;5.682;2023-05-07T11:30:01;14.32;;;12.35;;
75216;SDS011;63800;51.972;5.682;2023-05-07T11:32:31;16.80;;;11.95;;
75216;SDS011;63800;51.972;5.682;2023-05-07T11:34:57;13.55;;;10.57;;
75216;SDS011;63800;51.972;5.682;2023-05-07T11:37:24;15.07;;;12.45;;
75216;SDS011;63800;51.972;5.682;2023-05-07T11:40:02;13.95;;;11.15;;
75216;SDS011;63800;51.972;5.682;2023-05-07T11:42:35;14.70;;;11.68;;
75216;SDS011;63800;51.972;5.682;2023-05-07T11:45:02;14.82;;;11.77;;
75216;SDS011;63800;51.972;5.682;2023-05-07T11:47:31;19.10;;;13.75;;
75216;SDS011;63800;51.972;5.682;2023-05-07T11:50:01;19.73;;;13.93;;
75216;SDS011;63800;51.972;5.682;2023-05-07T11:52:29;19.50;;;14.50;;
75216;SDS011;63800;51.972;5.682;2023-05-07T11:54:56;18.92;;;14.32;;
75216;SDS011;63800;51.972;5.682;2023-05-07T11:57:24;18.10;;;13.40;;
75216;SDS011;63800;51.972;5.682;2023-05-07T11:59:56;18.92;;;13.85;;
75216;SDS011;63800;51.972;5.682;2023-05-07T12:04:49;17.15;;;13.60;;
75216;SDS011;63800;51.972;5.682;2023-05-07T12:07:16;16.73;;;13.50;;
75216;SDS011;63800;51.972;5.682;2023-05-07T12:09:43;17.77;;;13.48;;
75216;SDS011;63800;51.972;5.682;2023-05-07T12:12:09;16.38;;;12.50;;
75216;SDS011;63800;51.972;5.682;2023-05-07T12:14:41;15.95;;;12.52;;
75216;SDS011;63800;51.972;5.682;2023-05-07T12:19:34;16.30;;;13.07;;
75216;SDS011;63800;51.972;5.682;2023-05-07T12:22:01;15.35;;;12.20;;
75216;SDS011;63800;51.972;5.682;2023-05-07T12:24:28;15.57;;;11.95;;
75216;SDS011;63800;51.972;5.682;2023-05-07T12:26:53;16.90;;;13.27;;
75216;SDS011;63800;51.972;5.682;2023-05-07T12:29:22;16.50;;;14.05;;
75216;SDS011;63800;51.972;5.682;2023-05-07T12:31:49;17.38;;;14.23;;
75216;SDS011;63800;51.972;5.682;2023-05-07T12:34:15;16.75;;;14.50;;
75216;SDS011;63800;51.972;5.682;2023-05-07T12:36:41;16.35;;;13.15;;
75216;SDS011;63800;51.972;5.682;2023-05-07T12:39:07;16.95;;;14.95;;
75216;SDS011;63800;51.972;5.682;2023-05-07T12:41:52;16.67;;;14.48;;
75216;SDS011;63800;51.972;5.682;2023-05-07T12:44:23;16.75;;;14.10;;
75216;SDS011;63800;51.972;5.682;2023-05-07T12:46:50;19.23;;;15.50;;
75216;SDS011;63800;51.972;5.682;2023-05-07T12:49:16;16.77;;;14.32;;
75216;SDS011;63800;51.972;5.682;2023-05-07T12:51:43;15.43;;;13.82;;
75216;SDS011;63800;51.972;5.682;2023-05-07T12:54:09;17.63;;;14.52;;
75216;SDS011;63800;51.972;5.682;2023-05-07T12:56:37;16.17;;;14.20;;
75216;SDS011;63800;51.972;5.682;2023-05-07T12:59:02;17.58;;;14.00;;
75216;SDS011;63800;51.972;5.682;2023-05-07T13:01:33;18.15;;;14.25;;
75216;SDS011;63800;51.972;5.682;2023-05-07T13:04:05;18.17;;;14.18;;
75216;SDS011;63800;51.972;5.682;2023-05-07T13:06:30;17.38;;;14.90;;
75216;SDS011;63800;51.972;5.682;2023-05-07T13:08:56;16.90;;;14.70;;
75216;SDS011;63800;51.972;5.682;2023-05-07T13:11:21;18.02;;;14.80;;
75216;SDS011;63800;51.972;5.682;2023-05-07T13:13:47;17.65;;;14.23;;
75216;SDS011;63800;51.972;5.682;2023-05-07T13:16:13;17.90;;;13.73;;
75216;SDS011;63800;51.972;5.682;2023-05-07T13:18:39;16.08;;;13.15;;
75216;SDS011;63800;51.972;5.682;2023-05-07T13:21:05;16.13;;;13.77;;
75216;SDS011;63800;51.972;5.682;2023-05-07T13:23:31;15.90;;;12.98;;
75216;SDS011;63800;51.972;5.682;2023-05-07T13:25:56;14.05;;;11.35;;
75216;SDS011;63800;51.972;5.682;2023-05-07T13:28:22;14.02;;;10.98;;
75216;SDS011;63800;51.972;5.682;2023-05-07T13:30:48;13.50;;;9.93;;
75216;SDS011;63800;51.972;5.682;2023-05-07T13:33:14;11.90;;;9.40;;
75216;SDS011;63800;51.972;5.682;2023-05-07T13:35:41;9.45;;;7.78;;
75216;SDS011;63800;51.972;5.682;2023-05-07T13:38:06;9.88;;;7.70;;
75216;SDS011;63800;51.972;5.682;2023-05-07T13:40:33;11.68;;;8.25;;
75216;SDS011;63800;51.972;5.682;2023-05-07T13:42:58;9.13;;;7.75;;
75216;SDS011;63800;51.972;5.682;2023-05-07T13:45:26;12.02;;;10.73;;
75216;SDS011;63800;51.972;5.682;2023-05-07T13:47:54;13.95;;;11.07;;
75216;SDS011;63800;51.972;5.682;2023-05-07T13:50:20;11.50;;;9.55;;
75216;SDS011;63800;51.972;5.682;2023-05-07T13:52:45;10.68;;;9.50;;
75216;SDS011;63800;51.972;5.682;2023-05-07T13:55:15;9.82;;;8.82;;
75216;SDS011;63800;51.972;5.682;2023-05-07T13:57:44;10.85;;;9.75;;
75216;SDS011;63800;51.972;5.682;2023-05-07T14:00:11;11.13;;;9.93;;
75216;SDS011;63800;51.972;5.682;2023-05-07T14:02:37;14.30;;;11.77;;
75216;SDS011;63800;51.972;5.682;2023-05-07T14:05:03;14.05;;;10.88;;
75216;SDS011;63800;51.972;5.682;2023-05-07T14:07:29;11.48;;;9.77;;
75216;SDS011;63800;51.972;5.682;2023-05-07T14:09:56;12.30;;;10.15;;
75216;SDS011;63800;51.972;5.682;2023-05-07T14:12:22;12.35;;;10.43;;
75216;SDS011;63800;51.972;5.682;2023-05-07T14:14:47;11.85;;;10.63;;
75216;SDS011;63800;51.972;5.682;2023-05-07T14:17:14;12.13;;;10.32;;
75216;SDS011;63800;51.972;5.682;2023-05-07T14:19:43;12.38;;;10.45;;
75216;SDS011;63800;51.972;5.682;2023-05-07T14:22:09;14.13;;;11.15;;
75216;SDS011;63800;51.972;5.682;2023-05-07T14:24:34;13.88;;;10.82;;
75216;SDS011;63800;51.972;5.682;2023-05-07T14:27:00;15.20;;;11.35;;
75216;SDS011;63800;51.972;5.682;2023-05-07T14:29:25;14.10;;;11.23;;
75216;SDS011;63800;51.972;5.682;2023-05-07T14:31:51;12.50;;;9.88;;
75216;SDS011;63800;51.972;5.682;2023-05-07T14:34:16;11.90;;;10.25;;
75216;SDS011;63800;51.972;5.682;2023-05-07T14:36:42;14.20;;;10.70;;
75216;SDS011;63800;51.972;5.682;2023-05-07T14:39:08;12.73;;;10.27;;
75216;SDS011;63800;51.972;5.682;2023-05-07T14:41:34;13.55;;;11.32;;
75216;SDS011;63800;51.972;5.682;2023-05-07T14:44:00;15.45;;;10.63;;
75216;SDS011;63800;51.972;5.682;2023-05-07T14:46:26;12.75;;;10.40;;
75216;SDS011;63800;51.972;5.682;2023-05-07T14:48:52;13.48;;;10.75;;